Time;durP1;ratioP1;P1;durP2;ratioP2;P2;SDS_P1;SDS_P2;PMS_P1;PMS_P2;Temp;Humidity;BMP_temperature;BMP_pressure;BME280_temperature;BME280_humidity;BME280_pressure;Samples;Min_cycle;Max_cycle;Signal;HPM_P1;HPM_P2
2023/06/14 00:01:14;;;;;;;6.97;2.70;;;;;;;;;;5061393;27;95459;-77
2023/06/14 00:03:40;;;;;;;;;;;;;;;;;;5062780;27;94853;-77
2023/06/14 00:06:07;;;;;;;8.23;3.10;;;;;;;;;;5068990;27;116346;-76
2023/06/14 00:08:33;;;;;;;8.32;2.90;;;;;;;;;;5084394;27;93150;-77
2023/06/14 00:11:00;;;;;;;7.63;2.60;;;;;;;;;;5064599;27;94831;-77
2023/06/14 00:13:27;;;;;;;8.27;2.80;;;;;;;;;;5070172;27;94713;-77
2023/06/14 00:15:54;;;;;;;9.18;3.28;;;;;;;;;;5068354;27;92509;-77
2023/06/14 00:18:23;;;;;;;5.55;2.53;;;;;;;;;;5062996;27;92036;-77
2023/06/14 00:20:51;;;;;;;8.27;3.22;;;;;;;;;;5072908;27;92290;-77
2023/06/14 00:23:18;;;;;;;7.53;3.03;;;;;;;;;;5080846;27;94394;-77
2023/06/14 00:25:45;;;;;;;9.32;3.08;;;;;;;;;;5080564;27;95454;-77
2023/06/14 00:28:11;;;;;;;9.95;2.83;;;;;;;;;;5070059;27;93214;-77
2023/06/14 00:30:38;;;;;;;7.20;2.90;;;;;;;;;;5083452;27;91930;-77
2023/06/14 00:33:04;;;;;;;9.63;2.90;;;;;;;;;;5080836;27;93800;-78
2023/06/14 00:35:31;;;;;;;8.30;3.00;;;;;;;;;;5064445;27;93687;-77
2023/06/14 00:37:59;;;;;;;6.68;2.72;;;;;;;;;;5078713;27;94274;-77
2023/06/14 00:40:26;;;;;;;8.77;3.03;;;;;;;;;;5061600;27;92116;-77
2023/06/14 00:42:52;;;;;;;7.90;2.92;;;;;;;;;;5062827;27;92349;-76
2023/06/14 00:45:19;;;;;;;6.80;2.83;;;;;;;;;;5083123;27;93804;-78
2023/06/14 00:47:46;;;;;;;8.43;3.00;;;;;;;;;;5081372;27;92024;-77
2023/06/14 00:50:15;;;;;;;6.75;2.70;;;;;;;;;;5059757;27;94474;-77
2023/06/14 00:52:41;;;;;;;7.70;2.80;;;;;;;;;;5068405;27;94765;-76
2023/06/14 00:55:08;;;;;;;10.57;3.17;;;;;;;;;;5077529;27;92234;-77
2023/06/14 00:57:37;;;;;;;8.23;2.92;;;;;;;;;;5076494;27;99162;-78
2023/06/14 01:00:08;;;;;;;9.02;2.92;;;;;;;;;;5064371;27;95134;-77
2023/06/14 01:02:38;;;;;;;8.73;2.70;;;;;;;;;;5060863;27;95256;-78
2023/06/14 01:05:08;;;;;;;6.82;2.53;;;;;;;;;;5060395;27;95130;-77
2023/06/14 01:07:54;;;;;;;7.85;3.10;;;;;;;;;;5078884;27;92290;-77
2023/06/14 01:10:24;;;;;;;6.72;2.80;;;;;;;;;;5063951;27;94124;-77
2023/06/14 01:12:50;;;;;;;5.78;2.45;;;;;;;;;;5081547;27;93294;-77
2023/06/14 01:15:17;;;;;;;7.45;3.22;;;;;;;;;;5080285;27;94592;-76
2023/06/14 01:17:46;;;;;;;9.40;3.35;;;;;;;;;;5080370;27;94845;-77
2023/06/14 01:20:14;;;;;;;6.88;2.90;;;;;;;;;;5077183;27;92608;-76
2023/06/14 01:22:50;;;;;;;7.65;2.80;;;;;;;;;;5069695;27;93442;-77
2023/06/14 01:25:16;;;;;;;7.05;2.90;;;;;;;;;;5061250;27;92392;-76
2023/06/14 01:27:44;;;;;;;7.30;2.88;;;;;;;;;;5062571;27;92613;-77
2023/06/14 01:30:11;;;;;;;9.32;3.10;;;;;;;;;;5062484;27;92541;-77
2023/06/14 01:32:39;;;;;;;11.23;2.80;;;;;;;;;;5061131;27;93903;-77
2023/06/14 01:35:05;;;;;;;7.53;2.63;;;;;;;;;;5073795;27;92594;-77
2023/06/14 01:37:32;;;;;;;7.38;2.70;;;;;;;;;;5072819;27;92224;-77
2023/06/14 01:40:00;;;;;;;8.48;2.95;;;;;;;;;;5074266;27;94882;-76
2023/06/14 01:42:27;;;;;;;8.13;2.95;;;;;;;;;;5069277;27;92111;-78
2023/06/14 01:44:54;;;;;;;8.23;2.97;;;;;;;;;;5077777;27;93689;-77
2023/06/14 01:47:21;;;;;;;8.60;2.90;;;;;;;;;;5061224;27;92371;-76
2023/06/14 01:49:48;;;;;;;7.20;2.65;;;;;;;;;;5066196;27;92352;-77
2023/06/14 01:52:14;;;;;;;8.38;2.90;;;;;;;;;;5071886;27;92794;-77
2023/06/14 01:54:42;;;;;;;5.65;2.63;;;;;;;;;;5074547;27;93174;-77
2023/06/14 01:57:10;;;;;;;9.05;2.90;;;;;;;;;;5061797;27;92427;-76
2023/06/14 01:59:37;;;;;;;9.05;3.00;;;;;;;;;;5061471;27;93253;-77
2023/06/14 02:02:03;;;;;;;9.63;2.88;;;;;;;;;;5062152;27;92392;-77
2023/06/14 02:04:31;;;;;;;8.52;3.20;;;;;;;;;;5061439;27;95147;-78
2023/06/14 02:06:57;;;;;;;8.88;3.05;;;;;;;;;;5070775;27;92668;-78
2023/06/14 02:09:24;;;;;;;8.60;2.97;;;;;;;;;;5059791;27;95177;-78
2023/06/14 02:11:53;;;;;;;6.15;2.53;;;;;;;;;;5059727;27;92685;-77
2023/06/14 02:14:20;;;;;;;8.02;2.80;;;;;;;;;;5043736;27;92158;-78
2023/06/14 02:16:48;;;;;;;7.22;2.83;;;;;;;;;;5061581;27;92419;-76
2023/06/14 02:19:16;;;;;;;6.78;2.92;;;;;;;;;;5065484;27;94893;-76
2023/06/14 02:21:42;;;;;;;8.07;2.80;;;;;;;;;;5069005;27;91351;-77
2023/06/14 02:24:11;;;;;;;9.40;2.97;;;;;;;;;;5083962;27;93431;-76
2023/06/14 02:26:38;;;;;;;9.02;2.80;;;;;;;;;;5088017;27;93160;-77
2023/06/14 02:29:05;;;;;;;8.85;2.83;;;;;;;;;;5084253;27;94662;-77
2023/06/14 02:31:35;;;;;;;7.47;2.67;;;;;;;;;;5083437;27;98506;-78
2023/06/14 02:34:02;;;;;;;7.55;3.03;;;;;;;;;;5073880;27;92207;-77
2023/06/14 02:36:31;;;;;;;6.55;3.03;;;;;;;;;;5065079;27;92099;-77
2023/06/14 02:38:59;;;;;;;8.23;2.78;;;;;;;;;;5065089;27;94644;-76
2023/06/14 02:41:26;;;;;;;6.75;2.80;;;;;;;;;;5065443;27;91993;-77
2023/06/14 02:43:53;;;;;;;8.40;2.78;;;;;;;;;;5067860;27;93053;-76
2023/06/14 02:46:20;;;;;;;8.35;2.70;;;;;;;;;;5065099;27;91981;-77
2023/06/14 02:48:48;;;;;;;7.63;2.80;;;;;;;;;;5067971;27;93030;-78
2023/06/14 02:51:15;;;;;;;7.10;2.80;;;;;;;;;;5064106;27;93300;-77
2023/06/14 02:53:41;;;;;;;7.13;2.92;;;;;;;;;;5079203;27;94857;-78
2023/06/14 02:56:08;;;;;;;7.97;3.13;;;;;;;;;;5064509;27;95918;-77
2023/06/14 02:58:36;;;;;;;8.00;3.03;;;;;;;;;;5075192;27;93514;-77
2023/06/14 03:01:03;;;;;;;5.75;2.63;;;;;;;;;;5082448;27;92401;-78
2023/06/14 03:03:29;;;;;;;6.93;2.53;;;;;;;;;;5083400;27;92712;-77
2023/06/14 03:05:56;;;;;;;6.10;3.00;;;;;;;;;;5082155;27;92747;-78
2023/06/14 03:08:28;;;;;;;7.57;2.92;;;;;;;;;;5062747;27;92141;-77
2023/06/14 03:10:58;;;;;;;7.63;2.97;;;;;;;;;;5067812;27;93030;-77
2023/06/14 03:13:26;;;;;;;8.57;2.60;;;;;;;;;;5062152;27;92205;-77
2023/06/14 03:15:56;;;;;;;6.97;2.70;;;;;;;;;;5062603;27;95349;-78
2023/06/14 03:18:23;;;;;;;7.47;2.83;;;;;;;;;;5062186;27;98059;-78
2023/06/14 03:20:56;;;;;;;8.50;3.03;;;;;;;;;;5070682;27;92038;-77
2023/06/14 03:23:27;;;;;;;8.90;3.03;;;;;;;;;;5054605;27;94536;-77
2023/06/14 03:25:54;;;;;;;7.50;2.90;;;;;;;;;;5066265;27;95690;-78
2023/06/14 03:28:20;;;;;;;7.88;2.67;;;;;;;;;;5082917;27;92150;-78
2023/06/14 03:30:48;;;;;;;9.27;3.00;;;;;;;;;;5066919;27;93745;-78
2023/06/14 03:33:15;;;;;;;8.25;2.80;;;;;;;;;;5067507;27;93107;-77
2023/06/14 03:35:42;;;;;;;7.10;2.83;;;;;;;;;;5053925;27;94196;-77
2023/06/14 03:38:09;;;;;;;7.03;2.70;;;;;;;;;;5070412;27;92749;-78
2023/06/14 03:40:35;;;;;;;6.95;2.42;;;;;;;;;;5075954;27;92105;-77
2023/06/14 03:43:04;;;;;;;7.93;2.90;;;;;;;;;;5060574;27;94801;-76
2023/06/14 03:45:30;;;;;;;8.98;2.85;;;;;;;;;;5062514;27;92842;-77
2023/06/14 03:48:00;;;;;;;8.20;2.78;;;;;;;;;;5061993;27;92098;-77
2023/06/14 03:50:29;;;;;;;10.13;2.88;;;;;;;;;;5061878;27;94780;-77
2023/06/14 03:52:56;;;;;;;8.73;2.83;;;;;;;;;;5072982;27;92785;-78
2023/06/14 03:55:25;;;;;;;7.57;2.90;;;;;;;;;;5074380;27;92184;-77
2023/06/14 03:58:13;;;;;;;7.75;2.80;;;;;;;;;;5070758;27;95305;-78
2023/06/14 04:00:40;;;;;;;9.57;3.13;;;;;;;;;;5082886;27;91442;-78
2023/06/14 04:03:06;;;;;;;7.80;2.63;;;;;;;;;;5082021;27;92038;-78
2023/06/14 04:05:34;;;;;;;9.38;2.90;;;;;;;;;;5081895;27;98606;-78
2023/06/14 04:08:01;;;;;;;7.90;2.65;;;;;;;;;;5069897;27;94610;-78
2023/06/14 04:10:30;;;;;;;6.60;2.60;;;;;;;;;;5081629;27;94863;-77
2023/06/14 04:12:57;;;;;;;8.45;2.78;;;;;;;;;;5069151;27;93077;-77
2023/06/14 04:15:23;;;;;;;8.10;2.83;;;;;;;;;;5083878;27;94679;-77
2023/06/14 04:17:52;;;;;;;9.20;3.20;;;;;;;;;;5080006;27;94955;-77
2023/06/14 04:20:21;;;;;;;7.55;3.03;;;;;;;;;;5073893;27;92253;-77
2023/06/14 04:22:49;;;;;;;7.75;2.90;;;;;;;;;;5061217;27;92657;-78
2023/06/14 04:25:15;;;;;;;7.15;2.80;;;;;;;;;;5066605;27;94718;-77
2023/06/14 04:28:08;;;;;;;8.90;2.97;;;;;;;;;;5061440;27;91973;-77
2023/06/14 04:30:38;;;;;;;8.48;3.05;;;;;;;;;;5068293;27;95140;-77
2023/06/14 04:33:05;;;;;;;7.40;3.20;;;;;;;;;;5078483;27;97751;-76
2023/06/14 04:35:32;;;;;;;9.25;2.90;;;;;;;;;;5063538;27;92261;-77
2023/06/14 04:37:59;;;;;;;8.73;2.90;;;;;;;;;;5060648;27;92378;-77
2023/06/14 04:40:26;;;;;;;8.85;2.80;;;;;;;;;;5080191;27;92311;-77
2023/06/14 04:42:54;;;;;;;7.50;2.85;;;;;;;;;;5080618;27;95128;-76
2023/06/14 04:45:21;;;;;;;7.95;3.25;;;;;;;;;;5080260;27;94764;-77
2023/06/14 04:47:50;;;;;;;11.10;3.05;;;;;;;;;;5066944;27;92196;-77
2023/06/14 04:50:18;;;;;;;11.25;3.08;;;;;;;;;;5068826;27;92480;-77
2023/06/14 04:52:44;;;;;;;7.10;3.05;;;;;;;;;;5080096;27;92346;-77
2023/06/14 04:55:11;;;;;;;8.80;2.92;;;;;;;;;;5069626;27;92496;-77
2023/06/14 04:57:38;;;;;;;12.93;3.58;;;;;;;;;;5062193;27;95179;-78
2023/06/14 05:00:06;;;;;;;10.32;3.05;;;;;;;;;;5084186;27;95425;-78
2023/06/14 05:02:33;;;;;;;6.65;2.90;;;;;;;;;;5080294;27;95126;-77
2023/06/14 05:05:01;;;;;;;11.18;3.20;;;;;;;;;;5080907;27;94606;-77
2023/06/14 05:07:28;;;;;;;6.68;2.72;;;;;;;;;;5069981;27;92452;-76
2023/06/14 05:09:55;;;;;;;;;;;;;;;;;;5063955;27;93639;-78
2023/06/14 05:12:23;;;;;;;8.02;3.00;;;;;;;;;;5081605;27;94581;-77
2023/06/14 05:14:50;;;;;;;8.50;3.10;;;;;;;;;;5081624;27;91342;-78
2023/06/14 05:17:20;;;;;;;7.78;2.90;;;;;;;;;;5081655;27;94099;-77
2023/06/14 05:19:46;;;;;;;8.98;3.10;;;;;;;;;;5079423;27;93713;-78
2023/06/14 05:22:13;;;;;;;10.07;3.00;;;;;;;;;;5074997;27;94951;-77
2023/06/14 05:24:39;;;;;;;8.98;2.90;;;;;;;;;;5080883;27;92735;-77
2023/06/14 05:27:06;;;;;;;10.50;2.65;;;;;;;;;;5082361;27;92060;-78
2023/06/14 05:29:33;;;;;;;6.93;2.75;;;;;;;;;;5064962;27;95546;-78
2023/06/14 05:31:59;;;;;;;8.75;2.95;;;;;;;;;;5080369;27;95334;-77
2023/06/14 05:34:26;;;;;;;7.60;2.63;;;;;;;;;;5081965;27;92126;-77
2023/06/14 05:36:53;;;;;;;7.68;2.60;;;;;;;;;;5075769;27;92412;-77
2023/06/14 05:39:19;;;;;;;9.82;2.65;;;;;;;;;;5080736;27;92234;-77
2023/06/14 05:41:46;;;;;;;8.38;2.50;;;;;;;;;;5080641;27;92429;-77
2023/06/14 05:44:15;;;;;;;9.02;2.92;;;;;;;;;;5084433;27;93071;-77
2023/06/14 05:46:42;;;;;;;7.03;2.67;;;;;;;;;;5078332;27;94456;-77
2023/06/14 05:49:08;;;;;;;8.40;2.88;;;;;;;;;;5062542;27;98698;-77
2023/06/14 05:51:35;;;;;;;7.28;2.50;;;;;;;;;;5071084;27;92743;-77
2023/06/14 05:54:01;;;;;;;7.55;2.88;;;;;;;;;;5077987;27;92746;-78
2023/06/14 05:56:28;;;;;;;7.35;2.60;;;;;;;;;;5085212;27;92133;-77
2023/06/14 05:58:55;;;;;;;6.35;2.45;;;;;;;;;;5085340;27;92806;-77
2023/06/14 06:01:21;;;;;;;6.88;2.75;;;;;;;;;;5084174;27;92120;-77
2023/06/14 06:03:48;;;;;;;6.07;2.30;;;;;;;;;;5085140;27;92975;-78
2023/06/14 06:06:16;;;;;;;7.95;2.67;;;;;;;;;;5081445;27;92078;-78
2023/06/14 06:08:42;;;;;;;8.77;2.63;;;;;;;;;;5063014;27;92530;-78
2023/06/14 06:11:09;;;;;;;7.13;2.72;;;;;;;;;;5075639;27;94492;-77
2023/06/14 06:13:36;;;;;;;7.00;2.45;;;;;;;;;;5066693;27;92177;-77
2023/06/14 06:16:03;;;;;;;5.78;2.53;;;;;;;;;;5083879;27;92574;-77
2023/06/14 06:18:30;;;;;;;5.65;2.40;;;;;;;;;;5080707;27;93199;-79
2023/06/14 06:20:57;;;;;;;7.72;2.55;;;;;;;;;;5070688;27;92118;-77
2023/06/14 06:23:23;;;;;;;7.15;2.60;;;;;;;;;;5082116;27;92047;-78
2023/06/14 06:25:50;;;;;;;8.07;2.28;;;;;;;;;;5081534;27;94880;-77
2023/06/14 06:28:16;;;;;;;6.88;2.63;;;;;;;;;;5082213;27;92353;-77
2023/06/14 06:30:43;;;;;;;8.23;2.63;;;;;;;;;;5073679;27;95325;-78
2023/06/14 06:33:10;;;;;;;9.00;3.13;;;;;;;;;;5069931;27;92164;-77
2023/06/14 06:35:37;;;;;;;6.90;2.70;;;;;;;;;;5070801;27;94667;-78
2023/06/14 06:38:03;;;;;;;6.32;2.53;;;;;;;;;;5077577;27;92432;-79
2023/06/14 06:40:30;;;;;;;10.63;2.72;;;;;;;;;;5072598;27;92458;-79
2023/06/14 06:42:56;;;;;;;10.93;3.00;;;;;;;;;;5083387;27;92595;-79
2023/06/14 06:45:26;;;;;;;6.72;2.22;;;;;;;;;;5066004;27;95251;-78
2023/06/14 06:47:52;;;;;;;9.38;2.70;;;;;;;;;;5076526;27;92233;-79
2023/06/14 06:50:19;;;;;;;7.85;2.60;;;;;;;;;;5072698;27;94836;-80
2023/06/14 06:52:46;;;;;;;8.57;2.40;;;;;;;;;;5072105;27;92525;-80
2023/06/14 06:55:13;;;;;;;8.30;2.80;;;;;;;;;;5062800;27;92251;-79
2023/06/14 06:57:40;;;;;;;8.23;2.50;;;;;;;;;;5066060;27;93180;-80
2023/06/14 07:00:10;;;;;;;7.15;2.33;;;;;;;;;;5081336;27;94747;-79
2023/06/14 07:02:37;;;;;;;7.07;2.47;;;;;;;;;;5079011;27;95612;-78
2023/06/14 07:05:04;;;;;;;6.00;2.30;;;;;;;;;;5080336;27;93217;-78
2023/06/14 07:07:31;;;;;;;10.50;2.40;;;;;;;;;;5072669;27;92702;-78
2023/06/14 07:09:58;;;;;;;6.70;2.50;;;;;;;;;;5073131;27;94019;-79
2023/06/14 07:12:25;;;;;;;;;;;;;;;;;;5084666;27;92502;-79
2023/06/14 07:14:51;;;;;;;7.55;2.63;;;;;;;;;;5080620;27;117677;-79
2023/06/14 07:17:18;;;;;;;5.15;2.63;;;;;;;;;;5082125;27;92576;-81
2023/06/14 07:19:44;;;;;;;6.75;2.58;;;;;;;;;;5072355;27;92838;-79
2023/06/14 07:22:13;;;;;;;6.03;2.70;;;;;;;;;;5082962;27;92681;-79
2023/06/14 07:24:40;;;;;;;6.07;2.53;;;;;;;;;;5082150;27;95519;-79
2023/06/14 07:27:07;;;;;;;5.80;2.50;;;;;;;;;;5083912;27;92117;-80
2023/06/14 07:29:34;;;;;;;5.65;2.60;;;;;;;;;;5069694;27;96557;-80
2023/06/14 07:32:00;;;;;;;8.90;2.53;;;;;;;;;;5072580;27;93723;-80
2023/06/14 07:34:27;;;;;;;5.97;2.30;;;;;;;;;;5082790;27;92936;-80
2023/06/14 07:36:54;;;;;;;6.75;2.60;;;;;;;;;;5081654;27;92669;-80
2023/06/14 07:39:21;;;;;;;7.38;2.20;;;;;;;;;;5082262;27;92364;-79
2023/06/14 07:41:47;;;;;;;6.65;2.45;;;;;;;;;;5083032;27;93582;-78
2023/06/14 07:44:13;;;;;;;6.15;2.40;;;;;;;;;;5082424;27;92925;-78
2023/06/14 07:46:40;;;;;;;6.03;2.25;;;;;;;;;;5081338;27;92331;-79
2023/06/14 07:49:06;;;;;;;4.00;2.05;;;;;;;;;;5079520;27;94967;-80
2023/06/14 07:51:33;;;;;;;6.45;2.38;;;;;;;;;;5078003;27;98001;-79
2023/06/14 07:54:03;;;;;;;5.45;2.10;;;;;;;;;;5073002;27;92238;-80
2023/06/14 07:56:30;;;;;;;6.28;2.30;;;;;;;;;;5064506;27;94965;-80
2023/06/14 07:58:56;;;;;;;5.63;2.33;;;;;;;;;;5082924;27;92366;-80
2023/06/14 08:01:25;;;;;;;6.40;2.40;;;;;;;;;;5081901;27;92219;-80
2023/06/14 08:03:51;;;;;;;4.75;2.28;;;;;;;;;;5082278;27;93580;-79
2023/06/14 08:06:18;;;;;;;5.25;2.35;;;;;;;;;;5082809;27;91680;-79
2023/06/14 08:08:45;;;;;;;5.40;2.25;;;;;;;;;;5078806;27;92038;-79
2023/06/14 08:11:11;;;;;;;6.90;2.17;;;;;;;;;;5073659;27;95569;-79
2023/06/14 08:13:38;;;;;;;7.03;2.25;;;;;;;;;;5083672;27;94646;-80
2023/06/14 08:16:05;;;;;;;6.22;2.15;;;;;;;;;;5065971;27;93326;-80
2023/06/14 08:18:31;;;;;;;6.57;2.40;;;;;;;;;;5080364;27;92339;-80
2023/06/14 08:20:58;;;;;;;6.72;2.30;;;;;;;;;;5082224;27;92385;-79
2023/06/14 08:23:25;;;;;;;5.00;2.00;;;;;;;;;;5069257;27;92702;-79
2023/06/14 08:25:52;;;;;;;6.18;2.10;;;;;;;;;;5080727;27;92430;-80
2023/06/14 08:28:18;;;;;;;4.45;2.20;;;;;;;;;;5080338;27;95492;-80
2023/06/14 08:30:45;;;;;;;5.47;2.10;;;;;;;;;;5082743;27;92071;-80
2023/06/14 08:33:11;;;;;;;4.93;2.13;;;;;;;;;;5081578;27;92652;-80
2023/06/14 08:35:42;;;;;;;5.22;2.10;;;;;;;;;;5085220;27;93373;-80
2023/06/14 08:38:10;;;;;;;5.03;1.92;;;;;;;;;;5080515;27;94855;-81
2023/06/14 08:40:38;;;;;;;5.25;2.10;;;;;;;;;;5065853;27;94852;-81
2023/06/14 08:43:05;;;;;;;4.40;1.90;;;;;;;;;;5069402;27;92689;-81
2023/06/14 08:45:32;;;;;;;5.32;2.20;;;;;;;;;;5081233;27;93648;-80
2023/06/14 08:47:59;;;;;;;3.92;1.90;;;;;;;;;;5072759;27;92538;-80
2023/06/14 08:50:29;;;;;;;4.40;1.92;;;;;;;;;;5075153;27;92195;-80
2023/06/14 08:53:02;;;;;;;6.53;2.15;;;;;;;;;;5074892;27;92173;-80
2023/06/14 08:55:30;;;;;;;5.50;2.20;;;;;;;;;;5073769;27;93492;-81
2023/06/14 08:58:01;;;;;;;4.40;2.13;;;;;;;;;;5084769;27;93030;-81
2023/06/14 09:00:28;;;;;;;3.75;1.70;;;;;;;;;;5081565;27;93607;-81
2023/06/14 09:02:57;;;;;;;4.80;2.28;;;;;;;;;;5080153;27;95094;-80
2023/06/14 09:05:24;;;;;;;5.03;1.80;;;;;;;;;;5080573;27;95913;-80
2023/06/14 09:07:51;;;;;;;;;;;;;;;;;;5064306;27;92859;-77
2023/06/14 09:10:17;;;;;;;6.15;1.88;;;;;;;;;;5072969;27;111661;-79
2023/06/14 09:12:44;;;;;;;5.03;2.00;;;;;;;;;;5080378;27;92402;-78
2023/06/14 09:15:10;;;;;;;3.60;1.80;;;;;;;;;;5069706;27;92623;-78
2023/06/14 09:17:39;;;;;;;3.45;1.80;;;;;;;;;;5062249;27;92737;-78
2023/06/14 09:20:13;;;;;;;6.47;1.92;;;;;;;;;;5083059;27;91581;-77
2023/06/14 09:22:41;;;;;;;5.10;1.70;;;;;;;;;;5078732;27;92762;-77
2023/06/14 09:25:08;;;;;;;5.90;1.92;;;;;;;;;;5080988;27;92109;-77
2023/06/14 09:27:40;;;;;;;6.63;1.98;;;;;;;;;;5071093;27;97705;-80
2023/06/14 09:30:09;;;;;;;5.93;1.90;;;;;;;;;;5073119;27;92699;-79
2023/06/14 09:32:36;;;;;;;5.47;1.73;;;;;;;;;;5071157;27;92539;-77
2023/06/14 09:35:03;;;;;;;5.75;1.90;;;;;;;;;;5075014;27;92619;-78
2023/06/14 09:37:30;;;;;;;4.00;1.83;;;;;;;;;;5074568;27;92084;-78
2023/06/14 09:39:57;;;;;;;5.13;1.63;;;;;;;;;;5078918;27;92301;-78
2023/06/14 09:42:28;;;;;;;6.18;1.90;;;;;;;;;;5083757;27;92350;-78
2023/06/14 09:44:56;;;;;;;8.52;1.92;;;;;;;;;;5081285;27;92331;-77
2023/06/14 09:47:25;;;;;;;5.60;1.88;;;;;;;;;;5080604;27;92261;-77
2023/06/14 09:49:54;;;;;;;4.70;1.65;;;;;;;;;;5079448;27;93303;-77
2023/06/14 09:52:21;;;;;;;4.07;1.60;;;;;;;;;;5077142;27;94713;-76
2023/06/14 09:54:51;;;;;;;5.65;1.85;;;;;;;;;;5081925;27;95398;-76
2023/06/14 09:57:21;;;;;;;3.33;1.50;;;;;;;;;;5059885;27;92801;-75
2023/06/14 09:59:48;;;;;;;3.60;1.70;;;;;;;;;;5067575;27;92020;-76
2023/06/14 10:02:21;;;;;;;5.05;1.80;;;;;;;;;;5080385;27;94874;-77
2023/06/14 10:04:52;;;;;;;4.53;1.75;;;;;;;;;;5067408;27;92610;-77
2023/06/14 10:07:20;;;;;;;2.72;1.40;;;;;;;;;;5075958;27;94547;-77
2023/06/14 10:09:49;;;;;;;3.63;1.55;;;;;;;;;;5061879;27;92367;-78
2023/06/14 10:12:20;;;;;;;4.25;1.63;;;;;;;;;;5058822;27;92448;-76
2023/06/14 10:14:50;;;;;;;3.72;1.48;;;;;;;;;;5068261;27;92497;-77
2023/06/14 10:17:30;;;;;;;5.22;1.80;;;;;;;;;;5073677;27;95092;-77
2023/06/14 10:20:16;;;;;;;3.90;1.60;;;;;;;;;;5074928;27;93425;-76
2023/06/14 10:22:47;;;;;;;3.38;1.60;;;;;;;;;;5080790;27;92758;-77
2023/06/14 10:25:25;;;;;;;4.55;1.77;;;;;;;;;;5069564;27;93239;-77
2023/06/14 10:27:52;;;;;;;4.00;1.67;;;;;;;;;;5064047;27;94039;-77
2023/06/14 10:30:24;;;;;;;6.20;1.80;;;;;;;;;;5068755;27;96663;-77
2023/06/14 10:33:07;;;;;;;2.92;1.55;;;;;;;;;;5063131;27;93852;-77
2023/06/14 10:35:34;;;;;;;4.03;1.70;;;;;;;;;;5080083;27;97064;-77
2023/06/14 10:38:07;;;;;;;5.40;1.65;;;;;;;;;;5060219;27;94787;-78
2023/06/14 10:40:34;;;;;;;4.50;1.70;;;;;;;;;;5078187;27;92070;-78
2023/06/14 10:43:01;;;;;;;5.55;1.80;;;;;;;;;;5070241;27;94500;-77
2023/06/14 10:45:27;;;;;;;4.65;1.63;;;;;;;;;;5075211;27;93043;-81
2023/06/14 10:47:57;;;;;;;6.53;1.85;;;;;;;;;;5086212;27;92009;-82
2023/06/14 10:50:29;;;;;;;4.50;1.73;;;;;;;;;;5077081;27;92888;-81
2023/06/14 10:52:56;;;;;;;6.15;1.58;;;;;;;;;;5065383;27;92201;-82
2023/06/14 10:55:22;;;;;;;5.35;1.70;;;;;;;;;;5081763;27;94813;-81
2023/06/14 10:57:58;;;;;;;2.90;1.50;;;;;;;;;;5082995;27;92744;-82
2023/06/14 11:00:26;;;;;;;4.55;1.50;;;;;;;;;;5076678;27;94352;-81
2023/06/14 11:03:06;;;;;;;3.92;1.65;;;;;;;;;;5082775;27;92351;-81
2023/06/14 11:05:41;;;;;;;5.38;1.58;;;;;;;;;;5063401;27;92528;-81
2023/06/14 11:08:23;;;;;;;4.60;1.85;;;;;;;;;;5074451;27;94677;-82
2023/06/14 11:10:50;;;;;;;4.15;1.63;;;;;;;;;;5081981;27;97255;-83
2023/06/14 11:13:17;;;;;;;4.18;1.60;;;;;;;;;;5077622;27;93653;-82
2023/06/14 11:15:45;;;;;;;3.47;1.60;;;;;;;;;;5076967;27;95056;-82
2023/06/14 11:18:15;;;;;;;3.42;1.50;;;;;;;;;;5067013;27;92603;-81
2023/06/14 11:20:41;;;;;;;3.17;1.50;;;;;;;;;;5082566;27;92154;-80
2023/06/14 11:23:08;;;;;;;2.85;1.42;;;;;;;;;;5063033;27;94866;-80
2023/06/14 11:25:34;;;;;;;3.10;1.60;;;;;;;;;;5065740;27;98778;-82
2023/06/14 11:28:01;;;;;;;3.92;1.50;;;;;;;;;;5074600;27;92240;-81
2023/06/14 11:30:27;;;;;;;6.22;2.00;;;;;;;;;;5064793;27;94949;-81
2023/06/14 11:32:55;;;;;;;5.80;1.83;;;;;;;;;;5085238;27;95164;-81
2023/06/14 11:35:25;;;;;;;6.40;1.70;;;;;;;;;;5080858;27;96526;-80
2023/06/14 11:37:57;;;;;;;3.53;1.65;;;;;;;;;;5081768;27;94759;-80
2023/06/14 11:40:24;;;;;;;6.03;1.65;;;;;;;;;;5083419;27;92013;-80
2023/06/14 11:42:58;;;;;;;4.10;1.60;;;;;;;;;;5073563;27;92061;-80
2023/06/14 11:45:24;;;;;;;4.85;1.80;;;;;;;;;;5077254;27;93577;-80
2023/06/14 11:47:51;;;;;;;3.05;1.60;;;;;;;;;;5080660;27;92108;-80
2023/06/14 11:50:18;;;;;;;5.63;1.70;;;;;;;;;;5073977;27;92897;-80
2023/06/14 11:52:44;;;;;;;4.65;1.50;;;;;;;;;;5072726;27;93028;-80
2023/06/14 11:55:11;;;;;;;6.28;1.95;;;;;;;;;;5076098;27;92513;-80
2023/06/14 11:57:38;;;;;;;5.00;1.90;;;;;;;;;;5076282;27;97061;-80
2023/06/14 12:00:15;;;;;;;4.30;1.70;;;;;;;;;;5074902;27;92511;-80
2023/06/14 12:02:42;;;;;;;6.20;1.90;;;;;;;;;;5077713;27;92165;-79
2023/06/14 12:05:09;;;;;;;4.68;1.88;;;;;;;;;;5070687;27;93230;-80
2023/06/14 12:07:42;;;;;;;4.55;1.83;;;;;;;;;;5071298;27;92477;-79
2023/06/14 12:10:10;;;;;;;5.47;1.90;;;;;;;;;;5082174;27;93727;-79
2023/06/14 12:12:38;;;;;;;3.90;1.67;;;;;;;;;;5083199;27;94441;-79
2023/06/14 12:15:06;;;;;;;6.68;1.77;;;;;;;;;;5076724;27;91458;-79
2023/06/14 12:17:36;;;;;;;4.82;1.70;;;;;;;;;;5077471;27;91886;-77
2023/06/14 12:20:10;;;;;;;3.67;1.60;;;;;;;;;;5070042;27;92183;-78
2023/06/14 12:22:37;;;;;;;3.75;1.63;;;;;;;;;;5082021;27;94536;-78
2023/06/14 12:25:04;;;;;;;;;;;;;;;;;;5080292;27;94651;-78
2023/06/14 12:27:30;;;;;;;4.57;1.70;;;;;;;;;;5083674;27;93333;-79
2023/06/14 12:30:01;;;;;;;5.43;1.70;;;;;;;;;;5082152;27;92768;-77
2023/06/14 12:32:28;;;;;;;3.75;1.60;;;;;;;;;;5079987;27;92996;-77
2023/06/14 12:34:55;;;;;;;5.55;1.80;;;;;;;;;;5081273;27;92450;-77
2023/06/14 12:37:22;;;;;;;4.07;1.60;;;;;;;;;;5084543;27;92383;-78
2023/06/14 12:39:50;;;;;;;3.15;1.48;;;;;;;;;;5080780;27;91420;-77
2023/06/14 12:42:17;;;;;;;3.58;1.40;;;;;;;;;;5082606;27;91982;-77
2023/06/14 12:44:43;;;;;;;4.82;1.80;;;;;;;;;;5081942;27;93688;-77
2023/06/14 12:47:10;;;;;;;4.40;1.48;;;;;;;;;;5066427;27;94577;-77
2023/06/14 12:49:36;;;;;;;4.97;1.73;;;;;;;;;;5074066;27;95101;-77
2023/06/14 12:52:03;;;;;;;3.70;1.42;;;;;;;;;;5063638;27;93344;-77
2023/06/14 12:54:31;;;;;;;3.05;1.60;;;;;;;;;;5068255;27;93504;-76
2023/06/14 12:57:07;;;;;;;3.70;1.70;;;;;;;;;;5076102;27;92428;-78
2023/06/14 12:59:33;;;;;;;3.55;1.50;;;;;;;;;;5074282;27;92686;-77
2023/06/14 13:02:10;;;;;;;4.38;1.52;;;;;;;;;;5070238;27;95605;-77
2023/06/14 13:04:37;;;;;;;4.22;1.45;;;;;;;;;;5077631;27;92259;-78
2023/06/14 13:07:04;;;;;;;4.88;1.40;;;;;;;;;;5061624;27;96224;-78
2023/06/14 13:09:31;;;;;;;5.32;1.50;;;;;;;;;;5058993;27;92484;-78
2023/06/14 13:11:57;;;;;;;2.25;1.35;;;;;;;;;;5053844;27;97986;-78
2023/06/14 13:14:24;;;;;;;3.92;1.63;;;;;;;;;;5047651;27;92714;-78
2023/06/14 13:16:51;;;;;;;3.33;1.30;;;;;;;;;;5070232;27;92742;-79
2023/06/14 13:19:18;;;;;;;;;;;;;;;;;;5078113;27;92586;-78
2023/06/14 13:21:45;;;;;;;8.43;1.60;;;;;;;;;;5071876;27;102128;-79
2023/06/14 13:24:11;;;;;;;3.42;1.25;;;;;;;;;;5077927;27;93119;-79
2023/06/14 13:26:38;;;;;;;2.33;1.30;;;;;;;;;;5082064;27;92447;-79
2023/06/14 13:29:05;;;;;;;3.28;1.40;;;;;;;;;;5077686;27;95084;-81
2023/06/14 13:31:31;;;;;;;2.88;1.30;;;;;;;;;;5062825;27;95481;-81
2023/06/14 13:33:58;;;;;;;3.30;1.50;;;;;;;;;;5079388;27;92218;-81
2023/06/14 13:36:24;;;;;;;5.32;1.30;;;;;;;;;;5075935;27;94890;-80
2023/06/14 13:38:52;;;;;;;2.83;1.40;;;;;;;;;;5065255;27;92670;-81
2023/06/14 13:41:19;;;;;;;2.83;1.30;;;;;;;;;;5065450;27;92069;-81
2023/06/14 13:43:45;;;;;;;4.32;1.58;;;;;;;;;;5085369;27;93212;-82
2023/06/14 13:46:12;;;;;;;1.98;1.30;;;;;;;;;;5074393;27;92046;-81
2023/06/14 13:48:39;;;;;;;;;;;;;;;;;;5056915;27;92537;-81
2023/06/14 13:51:05;;;;;;;2.53;1.30;;;;;;;;;;5082625;27;114182;-81
2023/06/14 13:53:32;;;;;;;4.38;1.30;;;;;;;;;;5076236;27;91439;-81
2023/06/14 13:55:58;;;;;;;4.78;1.42;;;;;;;;;;5064391;27;93933;-81
2023/06/14 13:58:25;;;;;;;4.72;1.60;;;;;;;;;;5056590;27;94989;-82
2023/06/14 14:00:52;;;;;;;4.38;1.60;;;;;;;;;;5071892;27;94440;-82
2023/06/14 14:03:19;;;;;;;2.38;1.30;;;;;;;;;;5075145;27;97070;-82
2023/06/14 14:05:46;;;;;;;3.88;1.60;;;;;;;;;;5071073;27;92695;-82
2023/06/14 14:08:12;;;;;;;3.55;1.70;;;;;;;;;;5066242;27;92469;-81
2023/06/14 14:10:39;;;;;;;3.28;1.50;;;;;;;;;;5069761;27;92694;-81
2023/06/14 14:13:05;;;;;;;2.95;1.48;;;;;;;;;;5068375;27;92092;-82
2023/06/14 14:15:34;;;;;;;4.18;1.50;;;;;;;;;;5081672;27;94936;-83
2023/06/14 14:18:01;;;;;;;5.75;1.65;;;;;;;;;;5071321;27;91970;-83
2023/06/14 14:20:28;;;;;;;;;;;;;;;;;;5079109;27;92721;-83
2023/06/14 14:22:54;;;;;;;4.95;1.55;;;;;;;;;;5076738;27;114068;-83
2023/06/14 14:25:21;;;;;;;5.43;1.60;;;;;;;;;;5068320;27;95084;-81
2023/06/14 14:27:47;;;;;;;5.70;1.42;;;;;;;;;;5074361;27;92418;-82
2023/06/14 14:30:16;;;;;;;6.55;1.60;;;;;;;;;;5073829;27;93242;-80
2023/06/14 14:32:44;;;;;;;5.28;1.60;;;;;;;;;;5081174;27;92217;-82
2023/06/14 14:35:11;;;;;;;3.25;1.50;;;;;;;;;;5075067;27;92705;-83
2023/06/14 14:37:38;;;;;;;2.90;1.30;;;;;;;;;;5069070;27;92765;-84
2023/06/14 14:40:05;;;;;;;6.53;1.70;;;;;;;;;;5085050;27;92135;-84
2023/06/14 14:42:32;;;;;;;4.72;1.50;;;;;;;;;;5068966;27;94818;-82
2023/06/14 14:44:58;;;;;;;3.50;1.40;;;;;;;;;;5083469;27;93219;-80
2023/06/14 14:47:25;;;;;;;5.65;1.60;;;;;;;;;;5086057;27;92500;-80
2023/06/14 14:49:51;;;;;;;3.55;1.50;;;;;;;;;;5081644;27;95134;-80